UBC Old Aspen (OA) Site

Current climate data:

Measured at 13:00:00, 2017-08-17 (Local time)

 Air temperature        =   0.00 C 
 Relative humidity      =   0.00 % 
 Wind speed             =   3.99 m/s
 Wind direction         =  35.27  
 Barometric pressure    =   0.00 kPa 
 Precipitation (last 30 min) =   0.00 mm 
 Precipitation (24h totals ending at  4:00 AM today)  =   0.00 mm 
 Precipitation (24h totals ending at  1:00 PM today)  =   0.00 mm 
 Cumulative Precipitation (2017) =    0 mm 

Current Picture (Time stamp:UTC)  (Full size image)

Fire index data:

Year  Month  Day  Hour  Tair(C) RH(%) Wind(m/s) W_Dir(deg)  Rain(mm)   ffmc     dmc      dc     bui     isi     fwi     dsr     Rating
2017      7   19   13  -241.80    0.00    3.39     35.37      0.00     85.84    6.00   69.40    9.87    4.38    4.71    0.42       2  
2017      7   20   13  -241.80    0.00    1.02    213.93      0.00     85.89    6.00   72.60    9.95    2.87    2.92    0.18       2  
2017      7   21   13  -241.80    0.00    1.98    167.94      0.00     85.94    6.00   75.80   10.02    3.44    3.65    0.27       2  
2017      7   22   13  -241.80    0.00    0.97    253.05      0.00     85.99    6.00   79.00   10.09    2.88    2.96    0.19       2  
2017      7   23   13  -241.80    0.00    1.87    273.15      0.00     86.04    6.00   82.20   10.15    3.42    3.66    0.27       2  
2017      7   24   13  -241.80    0.00    4.65     16.73      0.00     86.09    6.00   85.40   10.21    5.70    6.22    0.69       2  
2017      7   25   13  -241.80    0.00    5.25     66.18      0.00     86.14    6.00   88.60   10.26    6.41    6.96    0.84       2  
2017      7   26   13  -241.80    0.00    2.90    308.44      0.00     86.19    6.00   91.80   10.31    4.21    4.63    0.41       2  
2017      7   27   13  -241.80    0.00    2.64    260.95      0.00     86.24    6.00   95.00   10.36    4.05    4.45    0.38       2  
2017      7   28   13  -241.80    0.00    4.49     45.60      0.00     86.29    6.00   98.20   10.41    5.70    6.28    0.70       2  
2017      7   29   13  -241.80    0.00    2.47     36.94      0.00     86.34    6.00  101.40   10.45    3.98    4.39    0.37       2  
2017      7   30   13  -241.80    0.00    2.54    230.53      0.00     86.39    6.00  104.60   10.49    4.06    4.50    0.39       2  
2017      7   31   13  -241.80    0.00    6.12     47.61      0.00     86.44    6.00  107.80   10.53    7.82    8.42    1.18       2  
2017      8    1   13  -241.80    0.00    1.62    107.10      0.00     86.49    6.00  110.30   10.56    3.48    3.82    0.29       2  
2017      8    2   13  -241.80    0.00    1.45    117.69      0.00     86.54    6.00  112.80   10.59    3.40    3.72    0.28       2  
2017      8    3   13  -241.80    0.00    1.65    340.33      0.00     86.59    6.00  115.30   10.62    3.55    3.92    0.31       2  
2017      8    4   13  -241.80    0.00    0.98     95.70      0.00     86.64    6.00  117.80   10.64    3.17    3.44    0.24       2  
2017      8    5   13  -241.80    0.00    1.27    226.68      0.00     86.69    6.00  120.30   10.67    3.36    3.70    0.28       2  
2017      8    6   13  -241.80    0.00    2.73    344.91      0.00     86.74    6.00  122.80   10.69    4.41    4.95    0.46       2  
2017      8    7   13  -241.80    0.00    2.70    182.41      0.00     86.79    6.00  125.30   10.72    4.42    4.97    0.46       2  
2017      8    8   13  -241.80    0.00    2.27    185.55      0.00     86.84    6.00  127.80   10.74    4.11    4.62    0.41       2  
2017      8    9   13  -241.80    0.00    0.42     23.23      0.00     86.89    6.00  130.30   10.76    2.97    3.21    0.21       2  
2017      8   10   13  -241.80    0.00    2.59    315.69      0.00     86.94    6.00  132.80   10.78    4.42    4.99    0.47       2  
2017      8   11   13  -241.80    0.00    0.65    206.58      0.00     86.99    6.00  135.30   10.80    3.14    3.44    0.24       2  
2017      8   12   13  -241.80    0.00    0.00    285.00      0.00     87.04    6.00  137.80   10.82    2.80    3.01    0.19       2  
2017      8   13   13  -241.80    0.00    3.92    269.96      0.00     87.09    6.00  140.30   10.84    5.75    6.47    0.74       2  
2017      8   14   13  -241.80    0.00    6.06    261.95      0.00     87.14    6.00  142.80   10.86    8.54    9.22    1.39       2  
2017      8   15   13  -241.80    0.00    4.46    299.78      0.00     87.19    6.00  145.30   10.88    6.43    7.19    0.89       2  
2017      8   16   13  -241.80    0.00    4.63     35.83      0.00     87.24    6.00  147.80   10.89    6.69    7.45    0.95       2  
2017      8   17   13    0.00    0.00    3.99     35.27      0.00     95.26    6.23  150.80   11.29   18.51   17.33    4.24       3  

(c) 2017 Biomet Group, University of British Columbia, Canada